Time;durP1;ratioP1;P1;durP2;ratioP2;P2;SDS_P1;SDS_P2;PMS_P1;PMS_P2;Temp;Humidity;BMP_temperature;BMP_pressure;BME280_temperature;BME280_humidity;BME280_pressure;Samples;Min_cycle;Max_cycle;Signal;HPM_P1;HPM_P2
2023/08/23 00:01:57;;;;;;;0.10;0.10;;;;;;;19.45;63.74;102135.75;5051759;28;20042;-82
2023/08/23 00:04:24;;;;;;;0.10;0.10;;;;;;;19.43;63.88;102137.59;5047635;28;20044;-82
2023/08/23 00:06:50;;;;;;;0.10;0.10;;;;;;;19.43;63.59;102136.72;5044754;28;20040;-83
2023/08/23 00:09:16;;;;;;;0.00;0.00;;;;;;;19.40;63.78;102143.97;5051817;28;20029;-82
2023/08/23 00:11:43;;;;;;;0.00;0.00;;;;;;;19.39;63.64;102139.53;5050897;28;20021;-81
2023/08/23 00:14:09;;;;;;;0.08;0.08;;;;;;;19.38;63.79;102128.84;5051684;28;20510;-82
2023/08/23 00:16:36;;;;;;;0.10;0.10;;;;;;;19.40;63.61;102137.69;5052865;28;20033;-82
2023/08/23 00:19:02;;;;;;;0.10;0.10;;;;;;;19.40;64.17;102133.22;5052036;28;20033;-82
2023/08/23 00:21:28;;;;;;;0.57;0.50;;;;;;;19.40;63.92;102126.94;5057297;28;20027;-83
2023/08/23 00:23:55;;;;;;;0.10;0.10;;;;;;;19.38;64.02;102118.94;5052963;28;20036;-82
2023/08/23 00:26:21;;;;;;;0.10;0.10;;;;;;;19.37;63.77;102125.25;5050677;28;20075;-82
2023/08/23 00:28:47;;;;;;;0.00;0.00;;;;;;;19.36;64.19;102117.25;5051640;28;20033;-82
2023/08/23 00:31:14;;;;;;;0.00;0.00;;;;;;;19.35;63.97;102119.06;5047166;28;20029;-83
2023/08/23 00:33:40;;;;;;;0.10;0.10;;;;;;;19.35;64.37;102119.06;5041571;28;20056;-81
2023/08/23 00:36:06;;;;;;;0.47;0.47;;;;;;;19.36;64.34;102120.81;5031214;28;20034;-83
2023/08/23 00:38:32;;;;;;;0.10;0.10;;;;;;;19.36;64.63;102114.56;5035804;28;20148;-82
2023/08/23 00:40:58;;;;;;;0.10;0.10;;;;;;;19.33;64.49;102112.88;5039838;28;20104;-83
2023/08/23 00:43:25;;;;;;;0.10;0.10;;;;;;;19.32;64.33;102110.25;5038457;28;20060;-83
2023/08/23 00:45:51;;;;;;;0.00;0.00;;;;;;;19.29;64.57;102108.56;5036400;28;20415;-83
2023/08/23 00:48:17;;;;;;;0.00;0.00;;;;;;;19.29;64.76;102105.88;5037690;28;20037;-81
2023/08/23 00:50:45;;;;;;;0.00;0.00;;;;;;;19.28;64.31;102104.09;5036735;28;20025;-83
2023/08/23 00:53:13;;;;;;;0.15;0.15;;;;;;;19.27;64.83;102110.41;5036628;28;20408;-82
2023/08/23 00:55:40;;;;;;;0.00;0.00;;;;;;;19.24;64.55;102108.72;5032531;28;20038;-82
2023/08/23 00:58:07;;;;;;;0.10;0.10;;;;;;;19.25;64.59;102112.25;5038408;28;20232;-82
2023/08/23 01:00:34;;;;;;;0.20;0.20;;;;;;;19.26;64.66;102111.34;5036583;28;20030;-82
2023/08/23 01:03:00;;;;;;;0.10;0.10;;;;;;;19.27;64.59;102099.66;5034137;28;20041;-82
2023/08/23 01:08:37;;;;;;;0.30;0.30;;;;;;;19.31;64.77;102106.66;5085562;27;1175510;-82
2023/08/23 01:11:13;;;;;;;0.00;0.00;;;;;;;19.27;64.66;102107.72;5123041;28;20043;-81
2023/08/23 01:16:40;;;;;;;0.10;0.10;;;;;;;19.23;65.10;102098.03;5086277;28;20183;-82
2023/08/23 01:19:38;;;;;;;0.60;0.60;;;;;;;19.27;65.19;102102.34;5068312;28;20460;-82
2023/08/23 01:22:08;;;;;;;0.00;0.00;;;;;;;19.23;64.97;102106.94;5068476;28;20031;-82
2023/08/23 01:24:34;;;;;;;0.10;0.10;;;;;;;19.23;64.74;102111.47;5066904;28;20060;-81
2023/08/23 01:27:00;;;;;;;1.65;0.88;;;;;;;19.23;65.07;102111.47;5069794;28;20496;-82
2023/08/23 01:29:26;;;;;;;0.10;0.10;;;;;;;19.23;64.72;102106.09;5069163;28;20495;-82
2023/08/23 01:32:00;;;;;;;0.10;0.10;;;;;;;19.24;65.10;102110.53;5073404;28;20078;-81
2023/08/23 01:34:34;;;;;;;0.30;0.30;;;;;;;19.23;65.10;102111.47;5067241;28;20043;-81
2023/08/23 01:37:04;;;;;;;0.68;0.68;;;;;;;19.23;64.96;102104.25;5067326;28;20492;-81
2023/08/23 01:39:30;;;;;;;0.00;0.00;;;;;;;19.20;65.34;102103.50;5071428;28;20024;-82
2023/08/23 01:41:57;;;;;;;0.10;0.10;;;;;;;19.17;65.30;102103.63;5069685;28;20043;-82
2023/08/23 01:44:23;;;;;;;0.32;0.32;;;;;;;19.16;65.21;102102.72;5071994;28;20025;-82
2023/08/23 01:46:49;;;;;;;0.10;0.10;;;;;;;19.14;65.24;102099.25;5067173;28;20116;-82
2023/08/23 01:49:15;;;;;;;0.10;0.10;;;;;;;19.13;65.11;102096.59;5059937;28;20049;-82
2023/08/23 01:51:41;;;;;;;0.10;0.10;;;;;;;19.12;64.96;102089.50;5064018;28;20033;-82
2023/08/23 01:54:07;;;;;;;0.00;0.00;;;;;;;19.10;65.30;102096.72;5064733;28;20057;-82
2023/08/23 01:56:33;;;;;;;0.10;0.10;;;;;;;19.06;65.35;102088.75;5060953;28;20080;-81
2023/08/23 01:59:00;;;;;;;0.52;0.30;;;;;;;19.04;65.20;102087.94;5075539;28;20041;-82
2023/08/23 02:01:26;;;;;;;0.10;0.10;;;;;;;19.02;65.30;102092.47;5073033;28;20040;-82
2023/08/23 02:03:52;;;;;;;0.08;0.08;;;;;;;19.01;65.35;102098.78;5073009;28;20017;-82
2023/08/23 02:06:18;;;;;;;0.10;0.10;;;;;;;18.98;65.40;102098.91;5070593;28;20487;-82
2023/08/23 02:08:44;;;;;;;0.08;0.08;;;;;;;18.99;65.16;102095.28;5073288;28;20056;-81
2023/08/23 02:11:10;;;;;;;0.10;0.10;;;;;;;19.00;65.46;102104.22;5072845;28;20039;-82
2023/08/23 02:13:36;;;;;;;0.00;0.00;;;;;;;19.02;65.61;102099.69;5072367;28;20112;-81
2023/08/23 02:16:02;;;;;;;0.10;0.10;;;;;;;19.01;65.78;102093.41;5072198;28;20036;-82
2023/08/23 02:18:28;;;;;;;0.10;0.10;;;;;;;19.02;65.89;102083.56;5065015;28;20035;-82
2023/08/23 02:20:57;;;;;;;0.10;0.10;;;;;;;19.01;65.81;102084.50;5072088;28;20099;-82
2023/08/23 02:23:23;;;;;;;0.10;0.10;;;;;;;19.01;65.70;102088.03;5070518;28;20034;-81
2023/08/23 02:25:49;;;;;;;0.10;0.10;;;;;;;19.02;65.80;102099.69;5064605;28;20108;-82
2023/08/23 02:28:15;;;;;;;0.10;0.10;;;;;;;19.02;65.87;102091.63;5058544;28;20036;-82
2023/08/23 02:30:42;;;;;;;0.05;0.05;;;;;;;19.03;65.68;102090.69;5052878;28;20048;-82
2023/08/23 02:33:08;;;;;;;0.08;0.08;;;;;;;19.05;65.90;102095.06;5055931;28;20033;-82
2023/08/23 02:35:34;;;;;;;0.30;0.30;;;;;;;19.08;65.87;102092.25;5054863;28;20045;-81
2023/08/23 02:38:01;;;;;;;0.05;0.05;;;;;;;19.11;65.73;102093.09;5073474;28;20067;-81
2023/08/23 02:40:27;;;;;;;0.00;0.00;;;;;;;19.12;65.71;102089.50;5067901;28;20066;-82
2023/08/23 02:42:55;;;;;;;0.10;0.10;;;;;;;19.13;65.87;102083.16;5059330;28;20037;-82
2023/08/23 02:45:22;;;;;;;0.10;0.10;;;;;;;19.12;66.06;102073.38;5052314;28;20022;-82
2023/08/23 02:47:48;;;;;;;0.10;0.10;;;;;;;19.11;65.81;102069.78;5057105;28;20033;-82
2023/08/23 02:50:14;;;;;;;0.10;0.10;;;;;;;19.12;65.80;102068.00;5057100;28;20112;-83
2023/08/23 02:52:40;;;;;;;0.10;0.10;;;;;;;19.11;66.19;102059.03;5055706;28;20052;-82
2023/08/23 02:55:06;;;;;;;0.00;0.00;;;;;;;19.10;66.12;102064.47;5053765;28;20033;-82
2023/08/23 02:57:32;;;;;;;1.30;1.00;;;;;;;19.10;66.09;102067.16;5054545;28;20034;-81
2023/08/23 02:59:58;;;;;;;0.10;0.10;;;;;;;19.10;66.57;102059.97;5058089;28;20088;-82
2023/08/23 03:02:24;;;;;;;0.00;0.00;;;;;;;19.11;66.17;102072.47;5057063;28;20072;-82
2023/08/23 03:04:50;;;;;;;0.00;0.00;;;;;;;19.14;66.47;102063.41;5055090;28;20103;-81
2023/08/23 03:07:17;;;;;;;0.05;0.05;;;;;;;19.14;66.47;102072.38;5054744;28;20108;-81
2023/08/23 03:09:43;;;;;;;0.08;0.08;;;;;;;19.17;66.42;102066.88;5056475;28;20557;-83
2023/08/23 03:12:09;;;;;;;0.10;0.10;;;;;;;19.21;66.42;102067.63;5056177;28;20032;-80
2023/08/23 03:14:35;;;;;;;0.00;0.00;;;;;;;19.24;66.52;102062.19;5055763;28;20037;-80
2023/08/23 03:17:01;;;;;;;0.10;0.10;;;;;;;19.26;66.57;102057.59;5054970;28;20068;-82
2023/08/23 03:19:27;;;;;;;0.00;0.00;;;;;;;19.28;66.59;102061.13;5055155;28;20044;-81
2023/08/23 03:21:53;;;;;;;0.10;0.10;;;;;;;19.30;66.40;102067.31;5055224;28;20033;-80
2023/08/23 03:24:19;;;;;;;0.10;0.10;;;;;;;19.31;66.56;102057.44;5056409;28;20028;-81
2023/08/23 03:26:45;;;;;;;0.10;0.10;;;;;;;19.30;66.40;102061.06;5056458;28;20112;-81
2023/08/23 03:29:11;;;;;;;0.10;0.10;;;;;;;19.29;66.55;102057.50;5055600;28;20389;-81
2023/08/23 03:31:37;;;;;;;0.08;0.08;;;;;;;19.28;66.54;102058.44;5054411;28;20108;-81
2023/08/23 03:34:03;;;;;;;1.27;0.30;;;;;;;19.26;66.56;102065.66;5051087;28;20029;-81
2023/08/23 03:36:30;;;;;;;0.10;0.10;;;;;;;19.25;66.68;102069.28;5050821;28;20040;-80
2023/08/23 03:38:56;;;;;;;0.10;0.10;;;;;;;19.22;66.44;102072.94;5052577;28;20078;-80
2023/08/23 03:41:22;;;;;;;0.10;0.10;;;;;;;19.19;66.79;102074.88;5055448;28;20074;-82
2023/08/23 03:43:48;;;;;;;0.20;0.20;;;;;;;19.16;66.61;102064.25;5055064;28;20447;-81
2023/08/23 03:46:15;;;;;;;0.10;0.10;;;;;;;19.16;66.69;102066.94;5049444;28;20503;-80
2023/08/23 03:48:41;;;;;;;0.00;0.00;;;;;;;19.16;66.64;102064.25;5051979;28;20053;-80
2023/08/23 03:51:07;;;;;;;0.10;0.10;;;;;;;19.15;66.56;102071.44;5053608;28;20061;-80
2023/08/23 03:53:33;;;;;;;0.00;0.00;;;;;;;19.14;66.66;102076.84;5056802;28;20059;-80
2023/08/23 03:55:59;;;;;;;0.00;0.00;;;;;;;19.14;66.88;102076.84;5054850;28;20049;-80
2023/08/23 03:58:25;;;;;;;0.10;0.10;;;;;;;19.12;67.02;102073.38;5057124;28;20028;-80
2023/08/23 04:00:53;;;;;;;0.45;0.45;;;;;;;19.11;67.13;102077.84;5056825;28;20108;-80
2023/08/23 04:03:19;;;;;;;0.20;0.20;;;;;;;19.08;67.18;102081.53;5053882;28;20033;-80
2023/08/23 04:05:45;;;;;;;0.45;0.22;;;;;;;19.08;67.26;102073.47;5054204;28;20029;-81
2023/08/23 04:08:13;;;;;;;0.43;0.43;;;;;;;19.05;67.68;102073.59;5055335;28;20396;-80
2023/08/23 04:10:39;;;;;;;1.15;0.68;;;;;;;19.04;67.68;102071.81;5055813;28;20032;-80
2023/08/23 04:13:05;;;;;;;0.10;0.10;;;;;;;19.02;67.94;102072.81;5047160;28;20037;-80
2023/08/23 04:15:31;;;;;;;0.10;0.10;;;;;;;19.01;68.27;102079.97;5053287;28;20029;-81
2023/08/23 04:17:57;;;;;;;0.20;0.20;;;;;;;19.00;68.52;102078.22;5055311;28;20504;-79
2023/08/23 04:20:23;;;;;;;0.20;0.20;;;;;;;19.01;68.69;102060.31;5053863;28;20033;-81
2023/08/23 04:22:49;;;;;;;0.65;0.65;;;;;;;19.01;68.55;102065.69;5054497;28;20047;-81
2023/08/23 04:25:15;;;;;;;0.93;0.68;;;;;;;19.00;68.27;102063.94;5051800;28;20028;-81
2023/08/23 04:27:42;;;;;;;0.10;0.10;;;;;;;18.98;68.84;102066.69;5054117;28;20032;-81
2023/08/23 04:30:08;;;;;;;0.10;0.10;;;;;;;18.96;69.21;102057.78;5052212;28;20095;-81
2023/08/23 04:32:34;;;;;;;0.10;0.10;;;;;;;18.96;68.92;102052.41;5047655;28;20061;-81
2023/08/23 04:35:00;;;;;;;0.10;0.10;;;;;;;18.93;69.45;102047.16;5051713;28;20440;-81
2023/08/23 04:37:26;;;;;;;0.55;0.55;;;;;;;18.92;69.25;102054.34;5048122;28;20064;-81
2023/08/23 04:39:52;;;;;;;0.10;0.10;;;;;;;18.92;69.26;102059.69;5051774;28;20036;-81
2023/08/23 04:42:18;;;;;;;0.10;0.10;;;;;;;18.91;69.21;102060.63;5054814;28;20037;-81
2023/08/23 04:44:44;;;;;;;0.40;0.40;;;;;;;18.91;69.22;102060.63;5053581;28;20090;-82
2023/08/23 04:47:10;;;;;;;0.10;0.10;;;;;;;18.91;69.55;102059.78;5054717;28;20033;-82
2023/08/23 04:49:36;;;;;;;0.10;0.10;;;;;;;18.92;69.23;102056.16;5053162;28;20033;-81
2023/08/23 04:52:02;;;;;;;0.10;0.10;;;;;;;18.91;69.35;102051.72;5053527;28;20067;-82
2023/08/23 04:54:29;;;;;;;0.30;0.30;;;;;;;18.92;69.64;102061.53;5054881;28;20037;-81
2023/08/23 04:56:55;;;;;;;0.10;0.10;;;;;;;18.90;69.64;102061.59;5055091;28;20029;-82
2023/08/23 04:59:21;;;;;;;0.20;0.20;;;;;;;18.91;69.60;102059.78;5050102;28;20024;-81
2023/08/23 05:01:47;;;;;;;0.38;0.38;;;;;;;18.91;69.69;102055.25;5046200;28;20116;-81
2023/08/23 05:04:13;;;;;;;0.10;0.10;;;;;;;18.91;69.61;102060.63;5053166;28;20040;-83
2023/08/23 05:06:40;;;;;;;0.10;0.10;;;;;;;18.92;69.72;102056.16;5054882;28;20025;-81
2023/08/23 05:09:06;;;;;;;0.10;0.10;;;;;;;18.92;69.44;102059.69;5055935;28;20028;-81
2023/08/23 05:11:32;;;;;;;0.43;0.43;;;;;;;18.94;69.66;102065.03;5056173;28;20032;-82
2023/08/23 05:13:58;;;;;;;0.10;0.10;;;;;;;18.97;69.61;102062.22;5052723;28;20037;-81
2023/08/23 05:16:24;;;;;;;0.10;0.10;;;;;;;19.00;69.76;102064.78;5051716;28;20028;-81
2023/08/23 05:18:51;;;;;;;0.10;0.10;;;;;;;19.02;70.20;102060.25;5047466;28;20021;-81
2023/08/23 05:21:17;;;;;;;0.10;0.10;;;;;;;19.07;69.71;102062.78;5056189;28;20081;-81
2023/08/23 05:23:43;;;;;;;0.30;0.30;;;;;;;19.10;70.19;102061.78;5049858;28;20044;-81
2023/08/23 05:26:09;;;;;;;0.10;0.10;;;;;;;19.10;70.31;102064.47;5054727;28;20032;-82
2023/08/23 05:28:35;;;;;;;0.22;0.22;;;;;;;19.10;70.60;102059.09;5051711;28;20029;-81
2023/08/23 05:31:02;;;;;;;2.08;0.52;;;;;;;19.12;70.24;102062.63;5052379;28;20056;-82
2023/08/23 05:33:29;;;;;;;0.10;0.10;;;;;;;19.16;70.06;102072.31;5051764;28;20384;-81
2023/08/23 05:35:55;;;;;;;0.08;0.08;;;;;;;19.16;70.56;102061.56;5052855;28;20037;-82
2023/08/23 05:38:23;;;;;;;0.35;0.35;;;;;;;19.18;70.64;102059.72;5053727;28;20402;-82
2023/08/23 05:40:50;;;;;;;0.20;0.20;;;;;;;19.21;70.43;102064.97;5055823;28;20025;-81
2023/08/23 05:43:17;;;;;;;0.20;0.20;;;;;;;19.23;70.22;102072.03;5053742;28;20025;-83
2023/08/23 05:45:44;;;;;;;1.55;0.52;;;;;;;19.26;70.87;102064.78;5059927;28;20017;-81
2023/08/23 05:48:10;;;;;;;0.98;0.98;;;;;;;19.28;70.59;102055.75;5062763;28;20033;-84
2023/08/23 05:50:36;;;;;;;0.13;0.13;;;;;;;19.31;70.92;102052.06;5064058;28;20033;-81
2023/08/23 05:53:09;;;;;;;0.08;0.08;;;;;;;19.35;70.54;102061.75;5058172;28;20060;-81
2023/08/23 05:55:36;;;;;;;0.10;0.10;;;;;;;19.38;70.57;102059.81;5055055;28;20033;-82
2023/08/23 05:58:02;;;;;;;0.10;0.10;;;;;;;19.41;71.07;102064.22;5052765;28;20130;-83
2023/08/23 06:00:28;;;;;;;0.17;0.17;;;;;;;19.45;70.88;102067.66;5049870;28;20060;-80
2023/08/23 06:02:54;;;;;;;0.10;0.10;;;;;;;19.48;70.80;102073.78;5049480;28;20029;-81
2023/08/23 06:05:20;;;;;;;0.00;0.00;;;;;;;19.51;71.14;102075.50;5049421;28;20025;-82
2023/08/23 06:07:46;;;;;;;0.10;0.10;;;;;;;19.55;70.99;102069.94;5051652;28;20033;-81
2023/08/23 06:10:12;;;;;;;0.10;0.10;;;;;;;19.54;71.34;102068.19;5048610;28;20081;-84
2023/08/23 06:12:38;;;;;;;0.00;0.00;;;;;;;19.63;70.81;102068.78;5057589;28;20060;-83
2023/08/23 06:15:05;;;;;;;0.10;0.10;;;;;;;19.65;71.90;102074.94;5059793;28;20111;-82
2023/08/23 06:17:31;;;;;;;0.30;0.30;;;;;;;19.71;71.66;102081.00;5058995;28;20056;-83
2023/08/23 06:19:57;;;;;;;0.13;0.13;;;;;;;19.78;71.26;102083.44;5058556;28;20033;-82
2023/08/23 06:22:24;;;;;;;1.17;0.93;;;;;;;19.84;71.18;102086.78;5059801;28;20029;-84
2023/08/23 06:24:50;;;;;;;0.10;0.10;;;;;;;19.90;71.03;102080.31;5059432;28;20029;-83
2023/08/23 06:27:16;;;;;;;0.10;0.10;;;;;;;19.95;71.91;102081.00;5057645;28;20029;-82
2023/08/23 06:29:42;;;;;;;0.43;0.43;;;;;;;20.01;71.30;102080.75;5058693;28;20083;-83
2023/08/23 06:32:08;;;;;;;0.10;0.10;;;;;;;20.09;71.42;102083.13;5058519;28;20029;-82
2023/08/23 06:34:35;;;;;;;0.10;0.10;;;;;;;20.17;71.59;102080.13;5056673;28;20527;-82
2023/08/23 06:37:01;;;;;;;0.10;0.10;;;;;;;20.19;72.02;102086.31;5057879;28;20025;-82
2023/08/23 06:39:28;;;;;;;0.13;0.13;;;;;;;20.28;71.92;102088.63;5046978;28;20090;-81
2023/08/23 06:41:54;;;;;;;0.10;0.10;;;;;;;20.36;71.71;102094.56;5057051;28;20507;-83
2023/08/23 06:44:20;;;;;;;0.10;0.10;;;;;;;20.41;72.35;102088.13;5058133;28;20493;-83
2023/08/23 06:46:46;;;;;;;0.75;0.75;;;;;;;20.44;71.62;102079.94;5055411;28;20567;-82
2023/08/23 06:49:12;;;;;;;0.20;0.20;;;;;;;20.52;71.59;102084.03;5057745;28;20523;-85
2023/08/23 06:51:38;;;;;;;1.45;1.25;;;;;;;20.57;72.15;102080.28;5059281;28;20041;-84
2023/08/23 06:54:05;;;;;;;0.20;0.20;;;;;;;20.56;72.21;102087.50;5058928;28;20021;-84
2023/08/23 06:56:31;;;;;;;0.32;0.32;;;;;;;20.61;71.63;102107.00;5055539;28;20041;-84
2023/08/23 06:58:57;;;;;;;0.52;0.52;;;;;;;20.70;71.45;102103.06;5057698;28;20025;-82
2023/08/23 07:01:23;;;;;;;0.13;0.13;;;;;;;20.78;71.96;102102.75;5057286;28;20087;-83
2023/08/23 07:03:49;;;;;;;7.97;1.55;;;;;;;20.90;71.64;102101.31;5057718;28;20085;-83
2023/08/23 07:06:15;;;;;;;1.10;0.88;;;;;;;21.03;71.54;102101.69;5056970;28;20025;-82
2023/08/23 07:08:43;;;;;;;0.20;0.20;;;;;;;21.16;71.78;102092.97;5059199;28;20028;-82
2023/08/23 07:11:09;;;;;;;0.93;0.90;;;;;;;21.27;71.53;102100.59;5061128;28;20032;-82
2023/08/23 07:13:39;;;;;;;0.28;0.28;;;;;;;21.44;71.37;102098.94;5062329;28;20043;-82
2023/08/23 07:16:05;;;;;;;4.13;2.95;;;;;;;21.47;70.62;102096.97;5064030;28;20080;-82
2023/08/23 07:18:32;;;;;;;0.30;0.30;;;;;;;21.55;70.24;102093.91;5060349;28;20029;-83
2023/08/23 07:20:58;;;;;;;0.30;0.30;;;;;;;21.56;70.14;102090.31;5057974;28;20033;-83
2023/08/23 07:23:24;;;;;;;0.47;0.47;;;;;;;21.65;70.04;102095.25;5063041;28;20033;-83
2023/08/23 07:25:51;;;;;;;0.10;0.10;;;;;;;21.72;70.00;102100.38;5063259;28;20025;-84
2023/08/23 07:28:17;;;;;;;1.00;1.00;;;;;;;21.71;69.65;102104.91;5061605;28;21041;-84
2023/08/23 07:30:49;;;;;;;0.85;0.85;;;;;;;21.77;69.83;102109.13;5062116;28;20432;-84
2023/08/23 07:33:16;;;;;;;0.10;0.10;;;;;;;21.74;69.65;102112.84;5048742;28;20384;-84
2023/08/23 07:35:42;;;;;;;5.53;2.42;;;;;;;21.83;69.66;102114.22;5058760;28;20041;-84
2023/08/23 07:38:08;;;;;;;0.20;0.20;;;;;;;21.87;69.92;102115.84;5059212;28;20455;-84
2023/08/23 07:40:38;;;;;;;0.70;0.70;;;;;;;22.05;69.55;102119.47;5049743;28;20065;-83
2023/08/23 07:43:05;;;;;;;0.13;0.13;;;;;;;22.21;69.35;102113.34;5058290;28;20028;-84
2023/08/23 07:45:31;;;;;;;0.20;0.20;;;;;;;22.34;69.07;102117.16;5057400;28;20051;-83
2023/08/23 07:47:57;;;;;;;0.43;0.43;;;;;;;22.47;69.05;102125.59;5057687;28;20028;-84
2023/08/23 07:50:23;;;;;;;1.45;1.35;;;;;;;22.51;68.23;102121.78;5053412;28;20052;-84
2023/08/23 07:52:49;;;;;;;0.28;0.28;;;;;;;22.51;67.49;102121.78;5056738;28;20068;-84
2023/08/23 07:55:15;;;;;;;0.30;0.30;;;;;;;22.62;67.61;102124.78;5058149;28;20044;-84
2023/08/23 07:57:41;;;;;;;1.17;1.15;;;;;;;22.70;67.32;102120.84;5057398;28;20029;-84
2023/08/23 08:00:09;;;;;;;0.28;0.28;;;;;;;22.81;66.89;102120.28;5056836;28;20102;-84
2023/08/23 08:02:35;;;;;;;0.10;0.10;;;;;;;22.98;67.21;102128.41;5057630;28;20433;-84
2023/08/23 08:05:01;;;;;;;0.15;0.15;;;;;;;23.13;66.72;102120.41;5055177;28;20052;-83
2023/08/23 08:07:29;;;;;;;3.15;2.25;;;;;;;23.33;66.20;102124.78;5055965;28;20062;-83
2023/08/23 08:09:55;;;;;;;1.65;1.55;;;;;;;23.34;65.05;102131.97;5057775;28;20033;-84
2023/08/23 08:12:21;;;;;;;2.20;0.55;;;;;;;23.48;65.28;102133.91;5056122;28;20021;-83
2023/08/23 08:14:47;;;;;;;0.25;0.25;;;;;;;23.58;65.25;102138.75;5056226;28;20033;-83
2023/08/23 08:17:13;;;;;;;0.22;0.22;;;;;;;23.67;64.50;102139.22;5057002;28;20032;-83
2023/08/23 08:19:39;;;;;;;1.02;1.02;;;;;;;23.68;64.15;102135.56;5055024;28;20570;-84
2023/08/23 08:22:05;;;;;;;0.95;0.65;;;;;;;23.67;63.76;102131.09;5056432;28;20642;-83
2023/08/23 08:24:31;;;;;;;0.90;0.77;;;;;;;23.60;63.68;102141.34;5056937;28;20037;-82
2023/08/23 08:26:57;;;;;;;0.70;0.68;;;;;;;23.67;64.16;102147.31;5057958;28;20625;-83
2023/08/23 08:29:23;;;;;;;0.65;0.65;;;;;;;23.63;64.09;102140.31;5056683;28;20662;-82
2023/08/23 08:31:50;;;;;;;1.67;1.55;;;;;;;23.56;63.96;102140.69;5051746;28;20613;-83
2023/08/23 08:34:17;;;;;;;0.40;0.40;;;;;;;23.52;64.25;102139.06;5051346;28;20108;-82
2023/08/23 08:36:43;;;;;;;0.55;0.55;;;;;;;23.57;64.10;102133.44;5054265;28;20039;-83
2023/08/23 08:39:09;;;;;;;0.20;0.20;;;;;;;23.66;63.78;102132.03;5055825;28;20037;-84
2023/08/23 08:41:35;;;;;;;0.40;0.40;;;;;;;23.73;63.50;102122.63;5053592;28;20071;-84
2023/08/23 08:44:02;;;;;;;0.13;0.13;;;;;;;23.81;63.24;102119.50;5056408;28;20045;-83
2023/08/23 08:46:28;;;;;;;0.32;0.32;;;;;;;23.81;63.18;102127.63;5054599;28;20079;-84
2023/08/23 08:48:54;;;;;;;0.38;0.38;;;;;;;23.79;63.26;102133.13;5052127;28;20060;-84
2023/08/23 08:51:21;;;;;;;0.32;0.32;;;;;;;23.82;63.45;102127.53;5050440;28;20446;-83
2023/08/23 08:53:50;;;;;;;0.10;0.10;;;;;;;23.82;63.24;102138.34;5056155;28;20029;-83
2023/08/23 08:56:17;;;;;;;3.75;0.57;;;;;;;23.82;62.67;102135.63;5052302;28;20041;-82
2023/08/23 08:58:45;;;;;;;0.10;0.10;;;;;;;23.88;63.16;102134.44;5071645;28;20021;-81
2023/08/23 09:01:14;;;;;;;1.00;1.00;;;;;;;23.96;62.87;102140.31;5063849;28;20040;-82
2023/08/23 09:03:40;;;;;;;0.10;0.10;;;;;;;24.03;62.76;102136.31;5053980;28;20029;-83
2023/08/23 09:06:07;;;;;;;3.08;1.65;;;;;;;24.09;61.97;102135.09;5054272;28;20076;-82
2023/08/23 09:08:34;;;;;;;0.40;0.20;;;;;;;24.17;62.10;102138.22;5055727;28;20033;-82
2023/08/23 09:11:00;;;;;;;0.25;0.25;;;;;;;24.20;61.54;102127.22;5055868;28;20029;-83
2023/08/23 09:13:26;;;;;;;0.10;0.10;;;;;;;24.30;61.53;102130.28;5051935;28;20047;-82
2023/08/23 09:15:52;;;;;;;0.55;0.55;;;;;;;24.33;61.27;102134.66;5053469;28;20083;-83
2023/08/23 09:18:19;;;;;;;0.20;0.20;;;;;;;24.42;61.21;102125.97;5053788;28;20033;-84
2023/08/23 09:20:46;;;;;;;0.22;0.22;;;;;;;24.52;61.08;102129.91;5053976;28;20040;-83
2023/08/23 09:23:12;;;;;;;0.20;0.20;;;;;;;24.61;60.78;102130.31;5054993;28;20036;-82
2023/08/23 09:25:38;;;;;;;0.43;0.43;;;;;;;24.68;60.19;102131.72;5055707;28;20082;-82
2023/08/23 09:28:04;;;;;;;0.13;0.13;;;;;;;24.77;60.69;102128.44;5056149;28;20078;-83
2023/08/23 09:30:32;;;;;;;0.32;0.32;;;;;;;24.82;59.82;102129.06;5055160;28;20041;-82
2023/08/23 09:32:58;;;;;;;0.10;0.10;;;;;;;24.86;59.83;102129.72;5053367;28;20116;-82
2023/08/23 09:35:24;;;;;;;0.40;0.17;;;;;;;24.92;58.94;102128.50;5049211;28;20101;-82
2023/08/23 09:37:50;;;;;;;4.28;1.48;;;;;;;25.01;58.62;102127.94;5057839;28;20037;-83
2023/08/23 09:42:56;;;;;;;0.20;0.20;;;;;;;25.25;58.22;102127.41;5067317;28;20397;-83
2023/08/23 09:45:23;;;;;;;1.20;0.55;;;;;;;25.33;57.79;102123.25;5066807;28;20037;-84
2023/08/23 09:48:00;;;;;;;0.13;0.13;;;;;;;25.37;56.88;102123.94;5066114;28;20589;-84
2023/08/23 09:50:28;;;;;;;1.23;1.13;;;;;;;25.40;57.06;102121.06;5069569;28;20078;-85
2023/08/23 09:53:01;;;;;;;0.25;0.25;;;;;;;25.54;57.16;102113.88;5072509;28;20039;-83
2023/08/23 09:55:30;;;;;;;0.43;0.43;;;;;;;25.58;54.97;102112.72;5055629;28;20588;-84
2023/08/23 09:57:58;;;;;;;0.63;0.63;;;;;;;25.70;55.07;102111.94;5052441;28;20041;-82
2023/08/23 10:00:25;;;;;;;0.82;0.82;;;;;;;25.79;54.80;102110.47;5054850;28;20032;-83
2023/08/23 10:02:53;;;;;;;0.17;0.17;;;;;;;25.92;54.81;102107.81;5065263;28;20096;-83
2023/08/23 10:05:20;;;;;;;0.20;0.20;;;;;;;26.03;54.10;102110.69;5059257;28;20035;-83
2023/08/23 10:07:47;;;;;;;0.00;0.00;;;;;;;26.09;52.50;102110.31;5065207;28;20163;-82
2023/08/23 10:10:13;;;;;;;0.47;0.47;;;;;;;26.16;53.89;102100.81;5064710;28;20025;-84
2023/08/23 10:12:44;;;;;;;0.10;0.10;;;;;;;26.25;53.74;102103.88;5065472;28;20027;-82
2023/08/23 10:15:13;;;;;;;0.00;0.00;;;;;;;26.34;54.05;102095.09;5062483;28;20075;-83
2023/08/23 10:17:41;;;;;;;0.00;0.00;;;;;;;26.43;53.97;102099.03;5066374;28;20498;-83
2023/08/23 10:20:10;;;;;;;1.52;0.77;;;;;;;26.56;53.11;102102.69;5057708;28;20036;-84
2023/08/23 10:22:37;;;;;;;0.55;0.55;;;;;;;26.63;53.30;102095.84;5061018;28;20039;-84
2023/08/23 10:25:16;;;;;;;0.10;0.10;;;;;;;26.77;51.74;102097.66;5061368;28;20081;-83
2023/08/23 10:27:44;;;;;;;0.00;0.00;;;;;;;26.83;51.32;102090.03;5065981;28;20436;-83
2023/08/23 10:30:14;;;;;;;0.00;0.00;;;;;;;26.93;52.01;102094.75;5061570;28;20025;-84
2023/08/23 10:32:44;;;;;;;0.10;0.10;;;;;;;27.05;51.78;102095.72;5068056;28;20044;-85
2023/08/23 10:35:32;;;;;;;0.00;0.00;;;;;;;27.17;49.66;102093.13;5060350;28;20064;-84
2023/08/23 10:37:58;;;;;;;0.10;0.10;;;;;;;27.21;50.93;102081.03;5067777;28;20482;-85
2023/08/23 10:40:29;;;;;;;0.00;0.00;;;;;;;27.34;50.90;102081.03;5067051;28;20037;-84
2023/08/23 10:42:55;;;;;;;0.20;0.20;;;;;;;27.38;49.02;102077.97;5070836;28;20059;-82
2023/08/23 10:45:22;;;;;;;0.00;0.00;;;;;;;27.43;47.95;102075.81;5064826;28;20037;-83
2023/08/23 10:47:50;;;;;;;0.00;0.00;;;;;;;27.55;48.50;102067.75;5070575;28;20067;-83
2023/08/23 10:50:18;;;;;;;0.10;0.10;;;;;;;27.67;48.21;102069.56;5055460;28;20036;-84
2023/08/23 10:52:46;;;;;;;0.00;0.00;;;;;;;27.80;48.67;102065.94;5052231;28;20041;-84
2023/08/23 10:55:12;;;;;;;0.08;0.08;;;;;;;27.98;48.62;102075.47;5043399;28;20020;-83
2023/08/23 10:57:38;;;;;;;0.20;0.20;;;;;;;28.17;49.20;102068.66;5048025;28;20056;-82
2023/08/23 11:00:04;;;;;;;0.10;0.10;;;;;;;28.35;46.78;102069.09;5052169;28;20094;-84
2023/08/23 11:02:32;;;;;;;3.75;0.80;;;;;;;28.56;46.39;102064.72;5049347;28;20491;-84
2023/08/23 11:04:58;;;;;;;0.52;0.13;;;;;;;28.71;43.41;102065.44;5049539;28;20037;-84
2023/08/23 11:07:26;;;;;;;0.10;0.10;;;;;;;28.86;44.28;102066.06;5049678;28;20504;-85
2023/08/23 11:09:52;;;;;;;1.08;0.32;;;;;;;28.83;41.35;102074.50;5049540;28;20702;-85
2023/08/23 11:12:18;;;;;;;0.00;0.00;;;;;;;28.75;43.06;102073.34;5044951;28;20032;-84
2023/08/23 11:14:44;;;;;;;0.00;0.00;;;;;;;28.69;44.04;102077.44;5050416;28;20097;-84
2023/08/23 11:17:11;;;;;;;0.00;0.00;;;;;;;28.67;43.89;102079.38;5052526;28;20036;-85
2023/08/23 11:19:39;;;;;;;0.00;0.00;;;;;;;28.55;44.69;102065.72;5041076;28;20028;-84
2023/08/23 11:22:07;;;;;;;0.00;0.00;;;;;;;28.36;44.60;102065.38;5051721;28;20033;-84
2023/08/23 11:24:38;;;;;;;0.20;0.20;;;;;;;28.25;45.38;102063.47;5045471;28;20045;-83
2023/08/23 11:27:12;;;;;;;0.17;0.17;;;;;;;28.12;44.32;102059.97;5049414;28;20514;-83
2023/08/23 11:29:40;;;;;;;0.10;0.10;;;;;;;27.89;45.13;102059.81;5048815;28;20043;-83
2023/08/23 11:32:06;;;;;;;0.20;0.20;;;;;;;27.86;44.42;102055.44;5053827;28;20024;-83